sensor_id;sensor_type;location;lat;lon;timestamp;P1;durP1;ratioP1;P2;durP2;ratioP2
13764;SDS011;6953;48.810;9.204;2023-05-07T00:02:06;0.20;;;0.20;;
13764;SDS011;6953;48.810;9.204;2023-05-07T00:04:34;0.30;;;0.30;;
13764;SDS011;6953;48.810;9.204;2023-05-07T00:07:04;0.30;;;0.30;;
13764;SDS011;6953;48.810;9.204;2023-05-07T00:09:30;0.20;;;0.20;;
13764;SDS011;6953;48.810;9.204;2023-05-07T00:11:59;0.30;;;0.30;;
13764;SDS011;6953;48.810;9.204;2023-05-07T00:14:29;0.30;;;0.30;;
13764;SDS011;6953;48.810;9.204;2023-05-07T00:16:57;0.40;;;0.40;;
13764;SDS011;6953;48.810;9.204;2023-05-07T00:19:24;0.30;;;0.30;;
13764;SDS011;6953;48.810;9.204;2023-05-07T00:21:55;0.30;;;0.30;;
13764;SDS011;6953;48.810;9.204;2023-05-07T00:24:23;0.40;;;0.40;;
13764;SDS011;6953;48.810;9.204;2023-05-07T00:26:50;0.35;;;0.35;;
13764;SDS011;6953;48.810;9.204;2023-05-07T00:29:15;0.30;;;0.30;;
13764;SDS011;6953;48.810;9.204;2023-05-07T00:31:42;0.30;;;0.30;;
13764;SDS011;6953;48.810;9.204;2023-05-07T00:34:10;0.40;;;0.40;;
13764;SDS011;6953;48.810;9.204;2023-05-07T00:36:37;0.40;;;0.40;;
13764;SDS011;6953;48.810;9.204;2023-05-07T00:39:05;0.40;;;0.40;;
13764;SDS011;6953;48.810;9.204;2023-05-07T00:41:32;0.28;;;0.28;;
13764;SDS011;6953;48.810;9.204;2023-05-07T00:44:00;0.30;;;0.30;;
13764;SDS011;6953;48.810;9.204;2023-05-07T00:46:30;0.40;;;0.40;;
13764;SDS011;6953;48.810;9.204;2023-05-07T00:48:59;0.30;;;0.30;;
13764;SDS011;6953;48.810;9.204;2023-05-07T00:51:26;0.30;;;0.30;;
13764;SDS011;6953;48.810;9.204;2023-05-07T00:53:54;0.35;;;0.35;;
13764;SDS011;6953;48.810;9.204;2023-05-07T00:56:21;0.40;;;0.40;;
13764;SDS011;6953;48.810;9.204;2023-05-07T00:58:51;0.30;;;0.30;;
13764;SDS011;6953;48.810;9.204;2023-05-07T01:01:18;0.20;;;0.20;;
13764;SDS011;6953;48.810;9.204;2023-05-07T01:03:45;0.28;;;0.28;;
13764;SDS011;6953;48.810;9.204;2023-05-07T01:06:12;0.20;;;0.20;;
13764;SDS011;6953;48.810;9.204;2023-05-07T01:08:41;0.40;;;0.40;;
13764;SDS011;6953;48.810;9.204;2023-05-07T01:11:09;0.30;;;0.30;;
13764;SDS011;6953;48.810;9.204;2023-05-07T01:13:37;0.30;;;0.30;;
13764;SDS011;6953;48.810;9.204;2023-05-07T01:16:05;0.30;;;0.30;;
13764;SDS011;6953;48.810;9.204;2023-05-07T01:18:34;0.20;;;0.20;;
13764;SDS011;6953;48.810;9.204;2023-05-07T01:21:00;0.30;;;0.30;;
13764;SDS011;6953;48.810;9.204;2023-05-07T01:23:31;0.30;;;0.30;;
13764;SDS011;6953;48.810;9.204;2023-05-07T01:26:01;0.30;;;0.30;;
13764;SDS011;6953;48.810;9.204;2023-05-07T01:28:31;0.30;;;0.30;;
13764;SDS011;6953;48.810;9.204;2023-05-07T01:31:00;0.38;;;0.38;;
13764;SDS011;6953;48.810;9.204;2023-05-07T01:33:31;0.30;;;0.30;;
13764;SDS011;6953;48.810;9.204;2023-05-07T01:36:02;0.20;;;0.20;;
13764;SDS011;6953;48.810;9.204;2023-05-07T01:38:31;0.30;;;0.30;;
13764;SDS011;6953;48.810;9.204;2023-05-07T01:41:01;0.40;;;0.40;;
13764;SDS011;6953;48.810;9.204;2023-05-07T01:43:29;0.50;;;0.50;;
13764;SDS011;6953;48.810;9.204;2023-05-07T01:45:59;0.40;;;0.40;;
13764;SDS011;6953;48.810;9.204;2023-05-07T01:48:27;0.30;;;0.30;;
13764;SDS011;6953;48.810;9.204;2023-05-07T01:50:54;0.35;;;0.35;;
13764;SDS011;6953;48.810;9.204;2023-05-07T01:53:21;0.40;;;0.40;;
13764;SDS011;6953;48.810;9.204;2023-05-07T01:55:49;0.32;;;0.32;;
13764;SDS011;6953;48.810;9.204;2023-05-07T01:58:15;0.40;;;0.40;;
13764;SDS011;6953;48.810;9.204;2023-05-07T02:00:41;0.40;;;0.40;;
13764;SDS011;6953;48.810;9.204;2023-05-07T02:03:09;0.30;;;0.30;;
13764;SDS011;6953;48.810;9.204;2023-05-07T02:05:37;0.30;;;0.30;;
13764;SDS011;6953;48.810;9.204;2023-05-07T02:08:08;0.32;;;0.32;;
13764;SDS011;6953;48.810;9.204;2023-05-07T02:10:36;0.38;;;0.38;;
13764;SDS011;6953;48.810;9.204;2023-05-07T02:13:03;0.40;;;0.40;;
13764;SDS011;6953;48.810;9.204;2023-05-07T02:15:30;0.35;;;0.35;;
13764;SDS011;6953;48.810;9.204;2023-05-07T02:18:05;0.20;;;0.20;;
13764;SDS011;6953;48.810;9.204;2023-05-07T02:20:34;0.40;;;0.40;;
13764;SDS011;6953;48.810;9.204;2023-05-07T02:23:04;0.40;;;0.40;;
13764;SDS011;6953;48.810;9.204;2023-05-07T02:25:34;0.32;;;0.32;;
13764;SDS011;6953;48.810;9.204;2023-05-07T02:28:00;0.20;;;0.20;;
13764;SDS011;6953;48.810;9.204;2023-05-07T02:30:29;0.30;;;0.30;;
13764;SDS011;6953;48.810;9.204;2023-05-07T02:32:57;0.40;;;0.40;;
13764;SDS011;6953;48.810;9.204;2023-05-07T02:35:25;0.40;;;0.40;;
13764;SDS011;6953;48.810;9.204;2023-05-07T02:37:52;0.30;;;0.30;;
13764;SDS011;6953;48.810;9.204;2023-05-07T02:40:19;0.35;;;0.35;;
13764;SDS011;6953;48.810;9.204;2023-05-07T02:42:48;0.30;;;0.30;;
13764;SDS011;6953;48.810;9.204;2023-05-07T02:45:19;0.30;;;0.30;;
13764;SDS011;6953;48.810;9.204;2023-05-07T02:47:46;0.40;;;0.40;;
13764;SDS011;6953;48.810;9.204;2023-05-07T02:50:13;0.30;;;0.30;;
13764;SDS011;6953;48.810;9.204;2023-05-07T02:52:41;0.30;;;0.30;;
13764;SDS011;6953;48.810;9.204;2023-05-07T02:55:09;0.40;;;0.40;;
13764;SDS011;6953;48.810;9.204;2023-05-07T02:57:35;0.30;;;0.30;;
13764;SDS011;6953;48.810;9.204;2023-05-07T03:00:09;0.40;;;0.40;;
13764;SDS011;6953;48.810;9.204;2023-05-07T03:02:40;0.40;;;0.40;;
13764;SDS011;6953;48.810;9.204;2023-05-07T03:05:07;0.45;;;0.45;;
13764;SDS011;6953;48.810;9.204;2023-05-07T03:07:37;0.40;;;0.40;;
13764;SDS011;6953;48.810;9.204;2023-05-07T03:10:05;0.30;;;0.30;;
13764;SDS011;6953;48.810;9.204;2023-05-07T03:12:33;0.40;;;0.40;;
13764;SDS011;6953;48.810;9.204;2023-05-07T03:15:01;0.40;;;0.40;;
13764;SDS011;6953;48.810;9.204;2023-05-07T03:17:29;0.30;;;0.30;;
13764;SDS011;6953;48.810;9.204;2023-05-07T03:19:56;0.40;;;0.40;;
13764;SDS011;6953;48.810;9.204;2023-05-07T03:22:25;0.30;;;0.30;;
13764;SDS011;6953;48.810;9.204;2023-05-07T03:24:52;0.40;;;0.40;;
13764;SDS011;6953;48.810;9.204;2023-05-07T03:27:19;0.40;;;0.40;;
13764;SDS011;6953;48.810;9.204;2023-05-07T03:29:46;0.47;;;0.47;;
13764;SDS011;6953;48.810;9.204;2023-05-07T03:32:12;0.50;;;0.50;;
13764;SDS011;6953;48.810;9.204;2023-05-07T03:34:37;0.50;;;0.50;;
13764;SDS011;6953;48.810;9.204;2023-05-07T03:37:04;0.38;;;0.38;;
13764;SDS011;6953;48.810;9.204;2023-05-07T03:39:32;0.30;;;0.30;;
13764;SDS011;6953;48.810;9.204;2023-05-07T03:41:59;0.38;;;0.38;;
13764;SDS011;6953;48.810;9.204;2023-05-07T03:44:32;0.30;;;0.30;;
13764;SDS011;6953;48.810;9.204;2023-05-07T03:47:02;0.40;;;0.40;;
13764;SDS011;6953;48.810;9.204;2023-05-07T03:49:29;0.38;;;0.38;;
13764;SDS011;6953;48.810;9.204;2023-05-07T03:51:57;0.30;;;0.30;;
13764;SDS011;6953;48.810;9.204;2023-05-07T03:54:24;0.30;;;0.30;;
13764;SDS011;6953;48.810;9.204;2023-05-07T03:56:54;0.30;;;0.30;;
13764;SDS011;6953;48.810;9.204;2023-05-07T03:59:22;0.30;;;0.30;;
13764;SDS011;6953;48.810;9.204;2023-05-07T04:01:48;0.40;;;0.40;;
13764;SDS011;6953;48.810;9.204;2023-05-07T04:04:15;0.38;;;0.38;;
13764;SDS011;6953;48.810;9.204;2023-05-07T04:06:43;0.30;;;0.30;;
13764;SDS011;6953;48.810;9.204;2023-05-07T04:09:10;0.40;;;0.40;;
13764;SDS011;6953;48.810;9.204;2023-05-07T04:11:36;0.40;;;0.40;;
13764;SDS011;6953;48.810;9.204;2023-05-07T04:14:02;0.30;;;0.30;;
13764;SDS011;6953;48.810;9.204;2023-05-07T04:16:30;0.30;;;0.30;;
13764;SDS011;6953;48.810;9.204;2023-05-07T04:18:57;0.30;;;0.30;;
13764;SDS011;6953;48.810;9.204;2023-05-07T04:21:25;0.40;;;0.40;;
13764;SDS011;6953;48.810;9.204;2023-05-07T04:23:53;0.40;;;0.40;;
13764;SDS011;6953;48.810;9.204;2023-05-07T04:26:21;0.40;;;0.40;;
13764;SDS011;6953;48.810;9.204;2023-05-07T04:28:47;0.30;;;0.30;;
13764;SDS011;6953;48.810;9.204;2023-05-07T04:31:12;0.30;;;0.30;;
13764;SDS011;6953;48.810;9.204;2023-05-07T04:33:38;0.30;;;0.30;;
13764;SDS011;6953;48.810;9.204;2023-05-07T04:36:03;0.40;;;0.40;;
13764;SDS011;6953;48.810;9.204;2023-05-07T04:38:30;0.30;;;0.30;;
13764;SDS011;6953;48.810;9.204;2023-05-07T04:40:56;0.22;;;0.22;;
13764;SDS011;6953;48.810;9.204;2023-05-07T04:43:30;0.30;;;0.30;;
13764;SDS011;6953;48.810;9.204;2023-05-07T04:45:57;0.30;;;0.30;;
13764;SDS011;6953;48.810;9.204;2023-05-07T04:48:24;0.40;;;0.40;;
13764;SDS011;6953;48.810;9.204;2023-05-07T04:50:53;0.30;;;0.30;;
13764;SDS011;6953;48.810;9.204;2023-05-07T04:53:20;0.40;;;0.40;;
13764;SDS011;6953;48.810;9.204;2023-05-07T04:55:46;0.40;;;0.40;;
13764;SDS011;6953;48.810;9.204;2023-05-07T04:58:12;0.32;;;0.32;;
13764;SDS011;6953;48.810;9.204;2023-05-07T05:00:40;0.30;;;0.30;;
13764;SDS011;6953;48.810;9.204;2023-05-07T05:03:07;0.32;;;0.32;;
13764;SDS011;6953;48.810;9.204;2023-05-07T05:05:33;0.30;;;0.30;;
13764;SDS011;6953;48.810;9.204;2023-05-07T05:08:00;0.30;;;0.30;;
13764;SDS011;6953;48.810;9.204;2023-05-07T05:10:27;0.30;;;0.30;;
13764;SDS011;6953;48.810;9.204;2023-05-07T05:12:56;0.22;;;0.22;;
13764;SDS011;6953;48.810;9.204;2023-05-07T05:15:23;0.30;;;0.30;;
13764;SDS011;6953;48.810;9.204;2023-05-07T05:17:50;0.35;;;0.35;;
13764;SDS011;6953;48.810;9.204;2023-05-07T05:20:18;0.30;;;0.30;;
13764;SDS011;6953;48.810;9.204;2023-05-07T05:22:46;0.32;;;0.32;;
13764;SDS011;6953;48.810;9.204;2023-05-07T05:25:16;0.30;;;0.30;;
13764;SDS011;6953;48.810;9.204;2023-05-07T05:27:44;0.20;;;0.20;;
13764;SDS011;6953;48.810;9.204;2023-05-07T05:30:12;0.30;;;0.30;;
13764;SDS011;6953;48.810;9.204;2023-05-07T05:32:39;0.30;;;0.30;;
13764;SDS011;6953;48.810;9.204;2023-05-07T05:35:07;0.20;;;0.20;;
13764;SDS011;6953;48.810;9.204;2023-05-07T05:37:35;0.30;;;0.30;;
13764;SDS011;6953;48.810;9.204;2023-05-07T05:40:02;0.20;;;0.20;;
13764;SDS011;6953;48.810;9.204;2023-05-07T05:42:31;0.20;;;0.20;;
13764;SDS011;6953;48.810;9.204;2023-05-07T05:45:02;0.20;;;0.20;;
13764;SDS011;6953;48.810;9.204;2023-05-07T05:47:31;0.20;;;0.20;;
13764;SDS011;6953;48.810;9.204;2023-05-07T05:50:04;0.20;;;0.20;;
13764;SDS011;6953;48.810;9.204;2023-05-07T05:52:32;0.20;;;0.20;;
13764;SDS011;6953;48.810;9.204;2023-05-07T05:55:03;0.20;;;0.20;;
13764;SDS011;6953;48.810;9.204;2023-05-07T05:57:30;0.20;;;0.20;;
13764;SDS011;6953;48.810;9.204;2023-05-07T06:00:00;0.10;;;0.10;;
13764;SDS011;6953;48.810;9.204;2023-05-07T06:02:30;0.20;;;0.20;;
13764;SDS011;6953;48.810;9.204;2023-05-07T06:04:57;0.20;;;0.20;;
13764;SDS011;6953;48.810;9.204;2023-05-07T06:07:26;0.20;;;0.20;;
13764;SDS011;6953;48.810;9.204;2023-05-07T06:09:53;0.20;;;0.20;;
13764;SDS011;6953;48.810;9.204;2023-05-07T06:12:20;0.10;;;0.10;;
13764;SDS011;6953;48.810;9.204;2023-05-07T06:14:48;0.17;;;0.17;;
13764;SDS011;6953;48.810;9.204;2023-05-07T06:17:15;0.20;;;0.20;;
13764;SDS011;6953;48.810;9.204;2023-05-07T06:19:43;0.20;;;0.20;;
13764;SDS011;6953;48.810;9.204;2023-05-07T06:22:11;0.20;;;0.20;;
13764;SDS011;6953;48.810;9.204;2023-05-07T06:24:41;0.15;;;0.15;;
13764;SDS011;6953;48.810;9.204;2023-05-07T06:27:09;0.20;;;0.20;;
13764;SDS011;6953;48.810;9.204;2023-05-07T06:29:36;0.10;;;0.10;;
13764;SDS011;6953;48.810;9.204;2023-05-07T06:32:06;0.20;;;0.20;;
13764;SDS011;6953;48.810;9.204;2023-05-07T06:34:36;0.20;;;0.20;;
13764;SDS011;6953;48.810;9.204;2023-05-07T06:37:04;0.20;;;0.20;;
13764;SDS011;6953;48.810;9.204;2023-05-07T06:39:31;0.10;;;0.10;;
13764;SDS011;6953;48.810;9.204;2023-05-07T06:42:02;0.10;;;0.10;;
13764;SDS011;6953;48.810;9.204;2023-05-07T06:44:30;0.10;;;0.10;;
13764;SDS011;6953;48.810;9.204;2023-05-07T06:46:57;0.10;;;0.10;;
13764;SDS011;6953;48.810;9.204;2023-05-07T06:49:24;0.10;;;0.10;;
13764;SDS011;6953;48.810;9.204;2023-05-07T06:51:50;0.10;;;0.10;;
13764;SDS011;6953;48.810;9.204;2023-05-07T06:54:16;0.00;;;0.00;;
13764;SDS011;6953;48.810;9.204;2023-05-07T06:56:44;0.00;;;0.00;;
13764;SDS011;6953;48.810;9.204;2023-05-07T06:59:11;0.00;;;0.00;;
13764;SDS011;6953;48.810;9.204;2023-05-07T07:01:37;0.00;;;0.00;;
13764;SDS011;6953;48.810;9.204;2023-05-07T07:04:05;0.00;;;0.00;;
13764;SDS011;6953;48.810;9.204;2023-05-07T07:06:31;0.00;;;0.00;;
13764;SDS011;6953;48.810;9.204;2023-05-07T07:08:59;0.00;;;0.00;;
13764;SDS011;6953;48.810;9.204;2023-05-07T07:11:28;0.03;;;0.03;;
13764;SDS011;6953;48.810;9.204;2023-05-07T07:13:55;0.00;;;0.00;;
13764;SDS011;6953;48.810;9.204;2023-05-07T07:16:24;0.00;;;0.00;;
13764;SDS011;6953;48.810;9.204;2023-05-07T07:18:51;0.00;;;0.00;;
13764;SDS011;6953;48.810;9.204;2023-05-07T07:21:19;0.00;;;0.00;;
13764;SDS011;6953;48.810;9.204;2023-05-07T07:23:46;0.00;;;0.00;;
13764;SDS011;6953;48.810;9.204;2023-05-07T07:26:12;0.03;;;0.03;;
13764;SDS011;6953;48.810;9.204;2023-05-07T07:28:46;0.00;;;0.00;;
13764;SDS011;6953;48.810;9.204;2023-05-07T07:31:13;0.00;;;0.00;;
13764;SDS011;6953;48.810;9.204;2023-05-07T07:33:40;0.00;;;0.00;;
13764;SDS011;6953;48.810;9.204;2023-05-07T07:36:06;0.00;;;0.00;;
13764;SDS011;6953;48.810;9.204;2023-05-07T07:38:32;0.00;;;0.00;;
13764;SDS011;6953;48.810;9.204;2023-05-07T07:40:59;0.00;;;0.00;;
13764;SDS011;6953;48.810;9.204;2023-05-07T07:43:25;0.00;;;0.00;;
13764;SDS011;6953;48.810;9.204;2023-05-07T07:45:50;0.00;;;0.00;;
13764;SDS011;6953;48.810;9.204;2023-05-07T07:48:16;0.00;;;0.00;;
13764;SDS011;6953;48.810;9.204;2023-05-07T07:50:42;0.00;;;0.00;;
13764;SDS011;6953;48.810;9.204;2023-05-07T07:53:08;0.00;;;0.00;;
13764;SDS011;6953;48.810;9.204;2023-05-07T07:55:38;0.00;;;0.00;;
13764;SDS011;6953;48.810;9.204;2023-05-07T07:58:05;0.00;;;0.00;;
13764;SDS011;6953;48.810;9.204;2023-05-07T08:00:30;0.03;;;0.03;;
13764;SDS011;6953;48.810;9.204;2023-05-07T08:02:56;0.00;;;0.00;;
13764;SDS011;6953;48.810;9.204;2023-05-07T08:05:24;0.00;;;0.00;;
13764;SDS011;6953;48.810;9.204;2023-05-07T08:07:50;0.00;;;0.00;;
13764;SDS011;6953;48.810;9.204;2023-05-07T08:10:18;0.00;;;0.00;;
13764;SDS011;6953;48.810;9.204;2023-05-07T08:12:48;0.00;;;0.00;;
13764;SDS011;6953;48.810;9.204;2023-05-07T08:15:15;0.00;;;0.00;;
13764;SDS011;6953;48.810;9.204;2023-05-07T08:17:42;0.00;;;0.00;;
13764;SDS011;6953;48.810;9.204;2023-05-07T08:20:09;0.00;;;0.00;;
13764;SDS011;6953;48.810;9.204;2023-05-07T08:22:36;0.00;;;0.00;;
13764;SDS011;6953;48.810;9.204;2023-05-07T08:25:03;0.10;;;0.10;;
13764;SDS011;6953;48.810;9.204;2023-05-07T08:27:30;0.00;;;0.00;;
13764;SDS011;6953;48.810;9.204;2023-05-07T08:29:59;0.00;;;0.00;;
13764;SDS011;6953;48.810;9.204;2023-05-07T08:32:26;0.00;;;0.00;;
13764;SDS011;6953;48.810;9.204;2023-05-07T08:34:52;0.00;;;0.00;;
13764;SDS011;6953;48.810;9.204;2023-05-07T08:37:18;0.00;;;0.00;;
13764;SDS011;6953;48.810;9.204;2023-05-07T08:39:44;0.00;;;0.00;;
13764;SDS011;6953;48.810;9.204;2023-05-07T08:42:11;0.00;;;0.00;;
13764;SDS011;6953;48.810;9.204;2023-05-07T08:44:38;0.00;;;0.00;;
13764;SDS011;6953;48.810;9.204;2023-05-07T08:47:07;0.00;;;0.00;;
13764;SDS011;6953;48.810;9.204;2023-05-07T08:49:33;0.00;;;0.00;;
13764;SDS011;6953;48.810;9.204;2023-05-07T08:52:03;0.10;;;0.10;;
13764;SDS011;6953;48.810;9.204;2023-05-07T08:54:33;0.00;;;0.00;;
13764;SDS011;6953;48.810;9.204;2023-05-07T08:56:59;0.00;;;0.00;;
13764;SDS011;6953;48.810;9.204;2023-05-07T08:59:29;0.00;;;0.00;;
13764;SDS011;6953;48.810;9.204;2023-05-07T09:01:58;0.00;;;0.00;;
13764;SDS011;6953;48.810;9.204;2023-05-07T09:04:29;0.00;;;0.00;;
13764;SDS011;6953;48.810;9.204;2023-05-07T09:06:58;0.00;;;0.00;;
13764;SDS011;6953;48.810;9.204;2023-05-07T09:09:37;0.00;;;0.00;;
13764;SDS011;6953;48.810;9.204;2023-05-07T09:12:04;0.00;;;0.00;;
13764;SDS011;6953;48.810;9.204;2023-05-07T09:14:31;0.00;;;0.00;;
13764;SDS011;6953;48.810;9.204;2023-05-07T09:17:04;0.00;;;0.00;;
13764;SDS011;6953;48.810;9.204;2023-05-07T09:19:32;0.00;;;0.00;;
13764;SDS011;6953;48.810;9.204;2023-05-07T09:25:39;0.00;;;0.00;;
13764;SDS011;6953;48.810;9.204;2023-05-07T09:28:07;0.00;;;0.00;;
13764;SDS011;6953;48.810;9.204;2023-05-07T09:30:42;0.00;;;0.00;;
13764;SDS011;6953;48.810;9.204;2023-05-07T09:33:26;0.00;;;0.00;;
13764;SDS011;6953;48.810;9.204;2023-05-07T09:35:58;0.00;;;0.00;;
13764;SDS011;6953;48.810;9.204;2023-05-07T09:38:41;0.00;;;0.00;;
13764;SDS011;6953;48.810;9.204;2023-05-07T09:41:12;0.00;;;0.00;;
13764;SDS011;6953;48.810;9.204;2023-05-07T09:43:42;0.00;;;0.00;;
13764;SDS011;6953;48.810;9.204;2023-05-07T09:46:13;0.00;;;0.00;;
13764;SDS011;6953;48.810;9.204;2023-05-07T09:48:45;0.00;;;0.00;;
13764;SDS011;6953;48.810;9.204;2023-05-07T09:51:23;0.00;;;0.00;;
13764;SDS011;6953;48.810;9.204;2023-05-07T09:53:52;0.00;;;0.00;;
13764;SDS011;6953;48.810;9.204;2023-05-07T09:56:49;0.00;;;0.00;;
13764;SDS011;6953;48.810;9.204;2023-05-07T09:59:29;0.00;;;0.00;;
13764;SDS011;6953;48.810;9.204;2023-05-07T10:03:05;0.00;;;0.00;;
13764;SDS011;6953;48.810;9.204;2023-05-07T10:06:20;0.00;;;0.00;;
13764;SDS011;6953;48.810;9.204;2023-05-07T10:08:47;0.00;;;0.00;;
13764;SDS011;6953;48.810;9.204;2023-05-07T10:11:14;0.00;;;0.00;;
13764;SDS011;6953;48.810;9.204;2023-05-07T10:13:42;0.00;;;0.00;;
13764;SDS011;6953;48.810;9.204;2023-05-07T10:16:09;0.00;;;0.00;;
13764;SDS011;6953;48.810;9.204;2023-05-07T10:18:36;0.00;;;0.00;;
13764;SDS011;6953;48.810;9.204;2023-05-07T10:21:16;0.03;;;0.03;;
13764;SDS011;6953;48.810;9.204;2023-05-07T10:23:50;0.00;;;0.00;;
13764;SDS011;6953;48.810;9.204;2023-05-07T10:26:22;0.00;;;0.00;;
13764;SDS011;6953;48.810;9.204;2023-05-07T10:28:51;0.00;;;0.00;;
13764;SDS011;6953;48.810;9.204;2023-05-07T10:33:58;0.00;;;0.00;;
13764;SDS011;6953;48.810;9.204;2023-05-07T10:36:26;0.00;;;0.00;;
13764;SDS011;6953;48.810;9.204;2023-05-07T10:38:52;0.00;;;0.00;;
13764;SDS011;6953;48.810;9.204;2023-05-07T10:41:20;0.00;;;0.00;;
13764;SDS011;6953;48.810;9.204;2023-05-07T10:43:46;0.00;;;0.00;;
13764;SDS011;6953;48.810;9.204;2023-05-07T10:46:18;0.00;;;0.00;;
13764;SDS011;6953;48.810;9.204;2023-05-07T10:51:27;0.00;;;0.00;;
13764;SDS011;6953;48.810;9.204;2023-05-07T10:56:37;0.00;;;0.00;;
13764;SDS011;6953;48.810;9.204;2023-05-07T11:01:57;0.00;;;0.00;;
13764;SDS011;6953;48.810;9.204;2023-05-07T11:04:31;0.00;;;0.00;;
13764;SDS011;6953;48.810;9.204;2023-05-07T11:15:11;0.00;;;0.00;;
13764;SDS011;6953;48.810;9.204;2023-05-07T11:17:59;0.00;;;0.00;;
13764;SDS011;6953;48.810;9.204;2023-05-07T11:20:50;0.00;;;0.00;;
13764;SDS011;6953;48.810;9.204;2023-05-07T11:28:29;0.00;;;0.00;;
13764;SDS011;6953;48.810;9.204;2023-05-07T11:30:56;0.00;;;0.00;;
13764;SDS011;6953;48.810;9.204;2023-05-07T11:33:23;0.00;;;0.00;;
13764;SDS011;6953;48.810;9.204;2023-05-07T11:35:50;0.08;;;0.08;;
13764;SDS011;6953;48.810;9.204;2023-05-07T11:38:21;0.00;;;0.00;;
13764;SDS011;6953;48.810;9.204;2023-05-07T11:43:16;0.00;;;0.00;;
13764;SDS011;6953;48.810;9.204;2023-05-07T11:45:41;0.00;;;0.00;;
13764;SDS011;6953;48.810;9.204;2023-05-07T11:48:06;0.00;;;0.00;;
13764;SDS011;6953;48.810;9.204;2023-05-07T11:50:32;0.00;;;0.00;;
13764;SDS011;6953;48.810;9.204;2023-05-07T11:52:57;0.00;;;0.00;;
13764;SDS011;6953;48.810;9.204;2023-05-07T11:55:23;0.00;;;0.00;;
13764;SDS011;6953;48.810;9.204;2023-05-07T11:57:50;0.00;;;0.00;;
13764;SDS011;6953;48.810;9.204;2023-05-07T12:00:15;0.00;;;0.00;;
13764;SDS011;6953;48.810;9.204;2023-05-07T12:02:42;0.10;;;0.10;;
13764;SDS011;6953;48.810;9.204;2023-05-07T12:05:07;0.00;;;0.00;;
13764;SDS011;6953;48.810;9.204;2023-05-07T12:31:06;0.10;;;0.10;;
13764;SDS011;6953;48.810;9.204;2023-05-07T12:33:32;0.10;;;0.10;;
13764;SDS011;6953;48.810;9.204;2023-05-07T12:35:58;0.10;;;0.10;;
13764;SDS011;6953;48.810;9.204;2023-05-07T12:38:27;0.10;;;0.10;;
13764;SDS011;6953;48.810;9.204;2023-05-07T12:41:00;0.10;;;0.10;;
13764;SDS011;6953;48.810;9.204;2023-05-07T12:43:26;0.10;;;0.10;;
13764;SDS011;6953;48.810;9.204;2023-05-07T12:46:00;0.10;;;0.10;;
13764;SDS011;6953;48.810;9.204;2023-05-07T12:48:27;0.10;;;0.10;;
13764;SDS011;6953;48.810;9.204;2023-05-07T12:50:52;0.20;;;0.20;;
13764;SDS011;6953;48.810;9.204;2023-05-07T12:53:20;0.15;;;0.15;;
13764;SDS011;6953;48.810;9.204;2023-05-07T12:55:47;0.20;;;0.20;;
13764;SDS011;6953;48.810;9.204;2023-05-07T13:00:43;0.20;;;0.20;;
13764;SDS011;6953;48.810;9.204;2023-05-07T13:03:09;0.20;;;0.20;;
13764;SDS011;6953;48.810;9.204;2023-05-07T13:05:35;0.20;;;0.20;;
13764;SDS011;6953;48.810;9.204;2023-05-07T13:08:01;0.20;;;0.20;;
13764;SDS011;6953;48.810;9.204;2023-05-07T13:10:26;0.20;;;0.20;;
13764;SDS011;6953;48.810;9.204;2023-05-07T13:12:52;0.20;;;0.20;;
13764;SDS011;6953;48.810;9.204;2023-05-07T13:15:17;0.20;;;0.20;;
13764;SDS011;6953;48.810;9.204;2023-05-07T13:17:43;0.15;;;0.15;;
13764;SDS011;6953;48.810;9.204;2023-05-07T13:20:09;0.30;;;0.30;;
13764;SDS011;6953;48.810;9.204;2023-05-07T13:22:36;0.20;;;0.20;;
13764;SDS011;6953;48.810;9.204;2023-05-07T13:25:01;0.20;;;0.20;;
13764;SDS011;6953;48.810;9.204;2023-05-07T13:27:27;0.20;;;0.20;;
13764;SDS011;6953;48.810;9.204;2023-05-07T13:29:52;0.30;;;0.30;;
13764;SDS011;6953;48.810;9.204;2023-05-07T13:32:17;0.30;;;0.30;;
13764;SDS011;6953;48.810;9.204;2023-05-07T13:34:43;0.30;;;0.30;;
13764;SDS011;6953;48.810;9.204;2023-05-07T13:37:08;0.30;;;0.30;;
13764;SDS011;6953;48.810;9.204;2023-05-07T13:39:34;0.20;;;0.20;;
13764;SDS011;6953;48.810;9.204;2023-05-07T13:41:59;0.30;;;0.30;;
13764;SDS011;6953;48.810;9.204;2023-05-07T13:44:24;0.30;;;0.30;;
13764;SDS011;6953;48.810;9.204;2023-05-07T13:46:50;0.20;;;0.20;;
13764;SDS011;6953;48.810;9.204;2023-05-07T13:49:16;0.30;;;0.30;;
13764;SDS011;6953;48.810;9.204;2023-05-07T13:51:41;0.28;;;0.28;;
13764;SDS011;6953;48.810;9.204;2023-05-07T13:54:06;0.20;;;0.20;;
13764;SDS011;6953;48.810;9.204;2023-05-07T13:56:32;0.30;;;0.30;;
13764;SDS011;6953;48.810;9.204;2023-05-07T13:58:58;0.22;;;0.22;;
13764;SDS011;6953;48.810;9.204;2023-05-07T14:01:23;0.30;;;0.30;;
13764;SDS011;6953;48.810;9.204;2023-05-07T14:03:49;0.30;;;0.30;;
13764;SDS011;6953;48.810;9.204;2023-05-07T14:06:14;0.30;;;0.30;;
13764;SDS011;6953;48.810;9.204;2023-05-07T14:08:39;0.38;;;0.38;;
13764;SDS011;6953;48.810;9.204;2023-05-07T14:11:05;0.25;;;0.25;;
13764;SDS011;6953;48.810;9.204;2023-05-07T14:13:31;0.30;;;0.30;;
13764;SDS011;6953;48.810;9.204;2023-05-07T14:15:56;0.40;;;0.40;;
13764;SDS011;6953;48.810;9.204;2023-05-07T14:18:22;0.30;;;0.30;;
13764;SDS011;6953;48.810;9.204;2023-05-07T14:20:48;0.30;;;0.30;;
13764;SDS011;6953;48.810;9.204;2023-05-07T14:23:13;0.30;;;0.30;;
13764;SDS011;6953;48.810;9.204;2023-05-07T14:25:39;0.30;;;0.30;;
13764;SDS011;6953;48.810;9.204;2023-05-07T14:28:04;0.30;;;0.30;;
13764;SDS011;6953;48.810;9.204;2023-05-07T14:30:30;0.20;;;0.20;;
13764;SDS011;6953;48.810;9.204;2023-05-07T14:32:55;0.30;;;0.30;;
13764;SDS011;6953;48.810;9.204;2023-05-07T14:35:21;0.30;;;0.30;;
13764;SDS011;6953;48.810;9.204;2023-05-07T14:37:46;0.30;;;0.30;;
13764;SDS011;6953;48.810;9.204;2023-05-07T14:40:11;0.20;;;0.20;;
13764;SDS011;6953;48.810;9.204;2023-05-07T14:42:37;0.30;;;0.30;;
13764;SDS011;6953;48.810;9.204;2023-05-07T14:45:03;0.20;;;0.20;;
13764;SDS011;6953;48.810;9.204;2023-05-07T14:47:28;0.20;;;0.20;;
13764;SDS011;6953;48.810;9.204;2023-05-07T14:49:54;0.30;;;0.30;;
13764;SDS011;6953;48.810;9.204;2023-05-07T14:52:19;0.40;;;0.40;;
13764;SDS011;6953;48.810;9.204;2023-05-07T14:54:45;0.20;;;0.20;;
13764;SDS011;6953;48.810;9.204;2023-05-07T14:57:11;0.30;;;0.30;;
13764;SDS011;6953;48.810;9.204;2023-05-07T14:59:41;0.30;;;0.30;;
13764;SDS011;6953;48.810;9.204;2023-05-07T15:02:07;0.30;;;0.30;;
13764;SDS011;6953;48.810;9.204;2023-05-07T15:04:33;0.30;;;0.30;;
13764;SDS011;6953;48.810;9.204;2023-05-07T18:25:24;0.20;;;0.20;;
13764;SDS011;6953;48.810;9.204;2023-05-07T18:27:50;0.30;;;0.30;;
13764;SDS011;6953;48.810;9.204;2023-05-07T18:30:15;0.30;;;0.30;;
13764;SDS011;6953;48.810;9.204;2023-05-07T18:32:41;0.20;;;0.20;;
13764;SDS011;6953;48.810;9.204;2023-05-07T18:35:06;0.20;;;0.20;;
13764;SDS011;6953;48.810;9.204;2023-05-07T18:37:32;0.20;;;0.20;;
13764;SDS011;6953;48.810;9.204;2023-05-07T18:39:57;0.20;;;0.20;;
13764;SDS011;6953;48.810;9.204;2023-05-07T18:42:26;0.30;;;0.30;;
13764;SDS011;6953;48.810;9.204;2023-05-07T18:44:52;0.25;;;0.25;;
13764;SDS011;6953;48.810;9.204;2023-05-07T18:47:18;0.20;;;0.20;;
13764;SDS011;6953;48.810;9.204;2023-05-07T18:49:43;0.30;;;0.30;;
13764;SDS011;6953;48.810;9.204;2023-05-07T18:52:09;0.30;;;0.30;;
13764;SDS011;6953;48.810;9.204;2023-05-07T18:54:34;0.30;;;0.30;;
13764;SDS011;6953;48.810;9.204;2023-05-07T18:56:59;0.30;;;0.30;;
13764;SDS011;6953;48.810;9.204;2023-05-07T18:59:25;0.20;;;0.20;;
13764;SDS011;6953;48.810;9.204;2023-05-07T19:01:50;0.13;;;0.13;;
13764;SDS011;6953;48.810;9.204;2023-05-07T19:04:16;0.20;;;0.20;;
13764;SDS011;6953;48.810;9.204;2023-05-07T19:06:42;0.20;;;0.20;;
13764;SDS011;6953;48.810;9.204;2023-05-07T19:09:07;0.20;;;0.20;;
13764;SDS011;6953;48.810;9.204;2023-05-07T19:11:33;0.30;;;0.30;;
13764;SDS011;6953;48.810;9.204;2023-05-07T19:13:58;0.20;;;0.20;;
13764;SDS011;6953;48.810;9.204;2023-05-07T19:16:23;0.40;;;0.40;;
13764;SDS011;6953;48.810;9.204;2023-05-07T19:18:49;0.30;;;0.30;;
13764;SDS011;6953;48.810;9.204;2023-05-07T19:21:15;0.30;;;0.30;;